Terminal Aerodrome Forecast
Issued by NWS

Home | Current Version | Previous Version | Text Only | Print | Product List | Glossary On
Versions: 1 2 3 4 5 6 7 8 9 10 11 12 13 14 15 16 17
714
FTUS46 KHNX 212342
TAFBFL
TAF
KBFL 212342Z 2200/2224 29005KT P6SM SCT050 BKN100
     FM220900 11013G25KT P6SM -RA BKN050
      TEMPO 2214/2218 10020G35KT
     FM221800 15015G25KT P6SM -RA SCT025 BKN050
      TEMPO 2218/2222 15020G35KT=

USA.gov is the U.S. government's official web portal to all federal, state and local government web resources and services.